Time;durP1;ratioP1;P1;durP2;ratioP2;P2;SDS_P1;SDS_P2;PMS_P1;PMS_P2;Temp;Humidity;BMP_temperature;BMP_pressure;BME280_temperature;BME280_humidity;BME280_pressure;Samples;Min_cycle;Max_cycle;Signal;HPM_P1;HPM_P2
2022/03/09 00:00:28;;;;;;;24.45;12.65;;;;;;;3.28;53.04;102064.66;5099082;28;20450;-59
2022/03/09 00:02:54;;;;;;;19.50;12.00;;;;;;;3.27;52.55;102062.03;5099189;28;20126;-59
2022/03/09 00:05:19;;;;;;;23.65;12.98;;;;;;;3.19;53.55;102060.84;5099054;28;20043;-58
2022/03/09 00:07:45;;;;;;;21.55;12.63;;;;;;;3.07;54.36;102050.94;5098645;28;20028;-60
2022/03/09 00:10:10;;;;;;;21.10;12.13;;;;;;;3.11;53.67;102061.47;5099256;28;20020;-59
2022/03/09 00:12:36;;;;;;;20.40;11.23;;;;;;;3.11;53.48;102064.06;5098732;28;20024;-59
2022/03/09 00:15:02;;;;;;;20.00;11.43;;;;;;;3.16;53.58;102071.97;5098447;28;20059;-59
2022/03/09 00:17:27;;;;;;;17.08;10.90;;;;;;;3.12;53.34;102067.50;5098691;28;20127;-59
2022/03/09 00:19:52;;;;;;;19.98;10.80;;;;;;;3.14;52.54;102077.06;5099063;28;20059;-59
2022/03/09 00:22:18;;;;;;;18.45;10.35;;;;;;;3.22;52.24;102079.06;5098372;28;20028;-60
2022/03/09 00:24:43;;;;;;;19.60;10.25;;;;;;;3.16;51.56;102069.38;5098536;28;20028;-59
2022/03/09 00:27:09;;;;;;;17.77;10.13;;;;;;;3.18;51.94;102072.03;5098072;28;20116;-59
2022/03/09 00:29:34;;;;;;;17.13;10.15;;;;;;;3.18;51.76;102072.03;5098966;28;20036;-59
2022/03/09 00:32:00;;;;;;;19.25;10.48;;;;;;;3.15;51.39;102068.50;5098560;28;20096;-59
2022/03/09 00:34:25;;;;;;;19.05;10.27;;;;;;;3.07;51.29;102056.13;5098703;28;20085;-59
2022/03/09 00:36:50;;;;;;;20.50;11.00;;;;;;;3.20;51.24;102081.59;5098418;28;20387;-59
2022/03/09 00:39:15;;;;;;;17.58;9.88;;;;;;;3.22;51.87;102074.78;5098132;28;20032;-59
2022/03/09 00:41:41;;;;;;;17.85;9.70;;;;;;;3.24;50.69;102072.25;5098412;28;20032;-58
2022/03/09 00:44:06;;;;;;;16.02;9.93;;;;;;;3.24;50.78;102082.59;5098428;28;20035;-59
2022/03/09 00:46:32;;;;;;;14.05;9.48;;;;;;;3.21;50.55;102072.13;5098464;28;20054;-60
2022/03/09 00:48:57;;;;;;;17.08;10.50;;;;;;;3.23;51.48;102070.50;5097826;28;20032;-59
2022/03/09 00:51:22;;;;;;;15.23;9.70;;;;;;;3.17;50.72;102067.66;5098145;28;20042;-63
2022/03/09 00:53:48;;;;;;;16.70;10.00;;;;;;;3.18;50.87;102080.66;5098246;28;20032;-59
2022/03/09 00:56:14;;;;;;;18.52;9.93;;;;;;;3.16;51.58;102071.97;5098122;28;20063;-59
2022/03/09 00:58:40;;;;;;;17.88;10.05;;;;;;;3.14;51.43;102069.31;5097936;28;20028;-58
2022/03/09 01:01:05;;;;;;;17.10;10.20;;;;;;;3.03;52.48;102074.94;5098197;28;20085;-59
2022/03/09 01:03:30;;;;;;;14.10;9.70;;;;;;;3.04;52.65;102079.28;5098092;28;20046;-58
2022/03/09 01:05:55;;;;;;;17.00;9.80;;;;;;;3.01;52.32;102076.56;5097437;28;20035;-59
2022/03/09 01:08:21;;;;;;;18.10;9.98;;;;;;;2.92;52.62;102074.53;5097151;28;20024;-59
2022/03/09 01:10:46;;;;;;;16.92;9.65;;;;;;;2.91;52.23;102074.50;5098146;28;20431;-59
2022/03/09 01:13:12;;;;;;;14.10;9.20;;;;;;;2.86;53.10;102074.31;5097917;28;20028;-59
2022/03/09 01:15:37;;;;;;;15.68;9.95;;;;;;;2.84;52.75;102065.59;5097497;28;20031;-59
2022/03/09 01:18:02;;;;;;;16.88;9.68;;;;;;;2.84;52.45;102073.38;5079418;28;20048;-58
2022/03/09 01:20:27;;;;;;;16.63;9.40;;;;;;;2.81;52.11;102060.31;5094610;28;20035;-59
2022/03/09 01:22:53;;;;;;;14.85;9.02;;;;;;;2.85;52.28;102071.66;5097449;28;20109;-59
2022/03/09 01:25:18;;;;;;;16.60;10.18;;;;;;;2.82;52.78;102071.53;5097681;28;20036;-59
2022/03/09 01:27:44;;;;;;;15.10;9.73;;;;;;;2.73;53.16;102072.97;5097351;28;20047;-59
2022/03/09 01:30:09;;;;;;;16.00;10.15;;;;;;;2.66;53.91;102075.25;5097180;28;20097;-59
2022/03/09 01:32:35;;;;;;;16.40;9.73;;;;;;;2.62;53.88;102074.25;5097558;28;20058;-59
2022/03/09 01:35:00;;;;;;;13.13;9.40;;;;;;;2.59;52.72;102074.16;5097806;28;20036;-59
2022/03/09 01:37:25;;;;;;;15.98;9.73;;;;;;;2.57;54.06;102077.50;5097899;28;20101;-60
2022/03/09 01:39:51;;;;;;;16.65;9.95;;;;;;;2.49;53.95;102072.00;5097187;28;20028;-59
2022/03/09 01:42:16;;;;;;;17.63;9.93;;;;;;;2.54;53.71;102069.63;5096681;28;20104;-59
2022/03/09 01:44:41;;;;;;;15.77;9.90;;;;;;;2.48;54.55;102080.59;5097299;28;20047;-59
2022/03/09 01:47:07;;;;;;;18.35;10.30;;;;;;;2.39;54.77;102065.63;5097118;28;20411;-59
2022/03/09 01:49:32;;;;;;;17.48;9.93;;;;;;;2.31;54.53;102069.59;5097020;28;20358;-59
2022/03/09 01:52:00;;;;;;;16.90;9.90;;;;;;;2.28;55.15;102063.41;5097716;28;20032;-58
2022/03/09 01:54:26;;;;;;;17.83;10.00;;;;;;;2.26;55.73;102065.94;5096829;28;20987;-58
2022/03/09 01:56:51;;;;;;;20.58;9.73;;;;;;;2.26;54.18;102065.06;5097149;28;20100;-59
2022/03/09 01:59:16;;;;;;;21.73;10.50;;;;;;;2.15;57.83;102064.63;5096745;28;20358;-59
2022/03/09 02:01:44;;;;;;;15.13;9.57;;;;;;;2.10;57.01;102061.84;5096983;28;20118;-59
2022/03/09 02:04:10;;;;;;;17.27;10.05;;;;;;;2.01;56.58;102053.75;5096723;28;20101;-58
2022/03/09 02:06:36;;;;;;;17.80;10.13;;;;;;;2.05;57.45;102065.97;5096632;28;20508;-59
2022/03/09 02:11:47;;;;;;;15.23;9.45;;;;;;;2.04;56.17;102061.63;5096556;28;20039;-59
2022/03/09 02:14:31;;;;;;;17.25;9.98;;;;;;;2.07;56.38;102064.34;5096573;28;20028;-59
2022/03/09 02:16:58;;;;;;;17.75;9.55;;;;;;;2.13;55.50;102079.19;5096572;28;20039;-59
2022/03/09 02:19:23;;;;;;;15.43;9.73;;;;;;;2.10;55.45;102077.34;5096280;28;20028;-58
2022/03/09 02:21:54;;;;;;;14.27;9.57;;;;;;;2.03;55.02;102069.31;5096237;28;20055;-58
2022/03/09 02:24:21;;;;;;;18.15;9.68;;;;;;;2.03;56.21;102077.94;5096090;28;20394;-58
2022/03/09 02:26:47;;;;;;;17.55;10.25;;;;;;;2.02;55.65;102071.00;5096336;28;20067;-58
2022/03/09 02:29:13;;;;;;;15.55;9.50;;;;;;;2.05;56.26;102068.56;5095770;28;20028;-59
2022/03/09 02:31:39;;;;;;;17.95;10.20;;;;;;;2.05;55.66;102070.25;5096309;28;20028;-59
2022/03/09 02:34:04;;;;;;;16.95;9.93;;;;;;;1.99;56.68;102067.41;5096123;28;20032;-59
2022/03/09 02:36:29;;;;;;;14.48;9.82;;;;;;;1.93;55.61;102067.16;5095921;28;20115;-59
2022/03/09 02:38:55;;;;;;;17.70;10.00;;;;;;;1.95;56.33;102060.34;5096335;28;20103;-58
2022/03/09 02:41:20;;;;;;;15.32;9.35;;;;;;;1.91;55.96;102061.94;5096273;28;20451;-58
2022/03/09 02:43:45;;;;;;;15.75;10.43;;;;;;;1.79;57.91;102058.84;5096175;28;20065;-58
2022/03/09 02:46:11;;;;;;;15.65;10.30;;;;;;;1.73;56.16;102056.03;5095920;28;20070;-59
2022/03/09 02:48:36;;;;;;;17.25;10.52;;;;;;;1.71;57.79;102052.50;5095814;28;20350;-59
2022/03/09 02:51:01;;;;;;;17.52;10.38;;;;;;;1.70;58.02;102050.75;5095963;28;20081;-59
2022/03/09 02:53:26;;;;;;;15.18;9.77;;;;;;;1.71;57.14;102050.81;5095848;28;20028;-58
2022/03/09 02:55:52;;;;;;;16.65;10.45;;;;;;;1.56;57.81;102024.34;5095647;28;20020;-59
2022/03/09 02:58:17;;;;;;;17.38;9.98;;;;;;;1.71;57.60;102044.75;5095962;28;20055;-59
2022/03/09 03:00:42;;;;;;;16.45;9.88;;;;;;;1.71;56.87;102044.75;5095785;28;20036;-59
2022/03/09 03:03:08;;;;;;;15.02;9.80;;;;;;;1.61;57.85;102040.00;5095725;28;20043;-59
2022/03/09 03:05:33;;;;;;;16.35;9.70;;;;;;;1.67;56.90;102042.88;5095401;28;20031;-59
2022/03/09 03:07:59;;;;;;;17.92;9.98;;;;;;;1.66;56.80;102047.16;5095752;28;20392;-58
2022/03/09 03:10:24;;;;;;;15.32;9.85;;;;;;;1.71;56.95;102050.81;5095569;28;20499;-58
2022/03/09 03:12:49;;;;;;;16.52;9.95;;;;;;;1.66;57.43;102048.84;5092055;28;20058;-59
2022/03/09 03:15:14;;;;;;;16.45;10.27;;;;;;;1.65;57.25;102053.13;5095495;28;20036;-59
2022/03/09 03:17:40;;;;;;;14.57;9.90;;;;;;;1.68;57.47;102049.78;5095223;28;20126;-59
2022/03/09 03:20:06;;;;;;;18.23;10.60;;;;;;;1.65;57.43;102053.13;5095595;28;20081;-58
2022/03/09 03:22:31;;;;;;;18.50;9.88;;;;;;;1.59;57.45;102049.38;5095514;28;20036;-59
2022/03/09 03:24:57;;;;;;;17.40;9.93;;;;;;;1.57;57.85;102051.00;5095390;28;20366;-59
2022/03/09 03:27:22;;;;;;;17.27;11.05;;;;;;;1.52;58.38;102060.28;5095551;28;20109;-58
2022/03/09 03:29:48;;;;;;;19.10;10.88;;;;;;;1.42;58.81;102047.78;5095226;28;20024;-59
2022/03/09 03:32:13;;;;;;;20.67;10.98;;;;;;;1.34;59.53;102040.63;5094757;28;20044;-59
2022/03/09 03:34:38;;;;;;;18.67;11.00;;;;;;;1.29;60.20;102031.81;5094956;28;20042;-59
2022/03/09 03:37:04;;;;;;;15.73;9.82;;;;;;;1.23;60.66;102039.25;5094996;28;20039;-59
2022/03/09 03:39:29;;;;;;;18.98;10.85;;;;;;;1.16;61.75;102044.97;5095321;28;20036;-58
2022/03/09 03:41:54;;;;;;;17.38;10.95;;;;;;;1.12;61.14;102039.63;5094951;28;20355;-58
2022/03/09 03:44:20;;;;;;;19.08;11.05;;;;;;;1.04;61.98;102045.31;5095009;28;20122;-59
2022/03/09 03:46:45;;;;;;;16.17;10.85;;;;;;;0.97;61.62;102045.88;5094943;28;20028;-59
2022/03/09 03:49:10;;;;;;;18.05;10.15;;;;;;;0.91;60.22;102037.84;5095146;28;20036;-58
2022/03/09 03:51:35;;;;;;;17.25;10.88;;;;;;;0.96;61.43;102041.53;5094903;28;20346;-59
2022/03/09 03:54:01;;;;;;;18.20;11.25;;;;;;;0.97;61.95;102043.28;5094669;28;20056;-58
2022/03/09 03:56:26;;;;;;;15.77;10.00;;;;;;;1.00;60.40;102051.16;5094827;28;20126;-58
2022/03/09 03:58:51;;;;;;;15.35;9.68;;;;;;;1.07;60.41;102048.84;5095126;28;20424;-58
2022/03/09 04:01:16;;;;;;;17.65;10.43;;;;;;;1.04;61.37;102047.88;5094894;28;20115;-58
2022/03/09 04:03:42;;;;;;;17.40;9.77;;;;;;;1.01;61.05;102046.88;5094746;28;20028;-59
2022/03/09 04:06:07;;;;;;;18.73;10.50;;;;;;;1.12;59.06;102052.50;5077362;28;20037;-59
2022/03/09 04:08:33;;;;;;;19.75;10.23;;;;;;;1.17;59.19;102049.31;5094768;28;20377;-59
2022/03/09 04:10:58;;;;;;;16.20;10.00;;;;;;;1.11;59.54;102038.72;5094835;28;20028;-58
2022/03/09 04:13:23;;;;;;;16.10;10.20;;;;;;;1.20;59.85;102056.31;5095497;28;20062;-58
2022/03/09 04:15:49;;;;;;;17.85;9.48;;;;;;;1.22;59.10;102052.06;5094684;28;20119;-58
2022/03/09 04:18:14;;;;;;;17.88;10.07;;;;;;;1.16;59.97;102050.13;5094767;28;20054;-59
2022/03/09 04:20:39;;;;;;;16.17;10.55;;;;;;;1.12;59.95;102055.97;5094385;28;20024;-59
2022/03/09 04:23:08;;;;;;;18.60;10.27;;;;;;;1.11;60.01;102054.19;5076580;28;20089;-58
2022/03/09 04:25:35;;;;;;;17.27;10.75;;;;;;;1.05;61.42;102046.19;5094744;28;20043;-58
2022/03/09 04:28:00;;;;;;;16.48;9.85;;;;;;;1.02;60.85;102046.06;5094520;28;20113;-59
2022/03/09 04:30:25;;;;;;;19.10;10.65;;;;;;;1.00;61.13;102038.28;5094499;28;20032;-58
2022/03/09 04:32:51;;;;;;;19.77;10.48;;;;;;;0.98;61.11;102041.59;5094509;28;20107;-59
2022/03/09 04:35:16;;;;;;;18.65;10.52;;;;;;;0.89;62.21;102033.44;5094678;28;20044;-59
2022/03/09 04:37:41;;;;;;;17.42;10.10;;;;;;;0.84;61.74;102040.09;5094635;28;20104;-58
2022/03/09 04:40:07;;;;;;;22.70;11.25;;;;;;;0.80;60.59;102036.50;5094609;28;20473;-58
2022/03/09 04:42:33;;;;;;;15.85;9.77;;;;;;;0.86;60.33;102041.94;5095358;28;20039;-58
2022/03/09 04:44:58;;;;;;;18.75;10.05;;;;;;;0.81;61.41;102032.22;5098286;28;20039;-59
2022/03/09 04:47:24;;;;;;;24.42;10.98;;;;;;;0.83;60.41;102036.63;5098156;28;20067;-59
2022/03/09 04:49:51;;;;;;;18.83;10.25;;;;;;;0.80;61.03;102035.59;5097973;28;20454;-59
2022/03/09 04:52:17;;;;;;;19.92;10.20;;;;;;;0.75;61.52;102030.25;5097861;28;20442;-59
2022/03/09 04:54:42;;;;;;;17.77;10.27;;;;;;;0.83;60.70;102034.06;5097961;28;20032;-59
2022/03/09 04:57:07;;;;;;;16.13;10.02;;;;;;;0.85;59.99;102045.31;5098416;28;20328;-59
2022/03/09 04:59:33;;;;;;;16.27;9.68;;;;;;;0.88;61.38;102040.28;5098044;28;20107;-59
2022/03/09 05:01:58;;;;;;;18.45;10.35;;;;;;;0.80;62.09;102043.34;5097907;28;20043;-59
2022/03/09 05:04:23;;;;;;;20.30;10.73;;;;;;;0.71;62.45;102033.47;5097707;28;20046;-58
2022/03/09 05:06:48;;;;;;;17.77;10.32;;;;;;;0.67;62.39;102036.75;5094880;28;20044;-58
2022/03/09 05:09:14;;;;;;;16.58;10.38;;;;;;;0.58;63.37;102049.19;5097953;28;20025;-58
2022/03/09 05:11:39;;;;;;;16.75;10.35;;;;;;;0.49;63.45;102034.22;5098107;28;20035;-58
2022/03/09 05:14:04;;;;;;;19.00;11.05;;;;;;;0.47;64.16;102046.13;5097833;28;20043;-59
2022/03/09 05:16:30;;;;;;;16.13;10.52;;;;;;;0.38;64.34;102039.66;5097691;28;20101;-59
2022/03/09 05:18:55;;;;;;;21.02;10.45;;;;;;;0.31;64.68;102038.50;5098198;28;20425;-59
2022/03/09 05:21:20;;;;;;;17.92;10.55;;;;;;;0.21;65.33;102042.31;5097732;28;20047;-59
2022/03/09 05:23:46;;;;;;;21.10;10.75;;;;;;;0.20;65.01;102039.66;5098099;28;20028;-59
2022/03/09 05:26:11;;;;;;;19.83;10.35;;;;;;;0.13;65.69;102043.66;5097447;28;20032;-59
2022/03/09 05:28:37;;;;;;;19.27;10.70;;;;;;;0.13;66.20;102051.38;5097525;28;20044;-59
2022/03/09 05:31:02;;;;;;;18.80;11.23;;;;;;;0.12;65.43;102041.00;5096918;28;20035;-59
2022/03/09 05:33:27;;;;;;;17.45;10.75;;;;;;;0.11;66.19;102050.44;5097241;28;20032;-58
2022/03/09 05:35:53;;;;;;;18.48;10.90;;;;;;;0.08;65.89;102052.84;5097565;28;20053;-59
2022/03/09 05:38:18;;;;;;;21.27;11.23;;;;;;;0.08;65.99;102059.69;5096988;28;20028;-59
2022/03/09 05:40:43;;;;;;;19.60;10.48;;;;;;;0.05;66.26;102060.41;5097428;28;20032;-58
2022/03/09 05:43:08;;;;;;;19.73;10.98;;;;;;;-0.04;65.62;102054.84;5097296;28;20035;-58
2022/03/09 05:45:34;;;;;;;18.23;10.15;;;;;;;-0.01;65.48;102057.56;5097159;28;20020;-58
2022/03/09 05:47:59;;;;;;;20.60;11.13;;;;;;;-0.01;66.09;102048.16;5097215;28;20035;-58
2022/03/09 05:50:24;;;;;;;15.73;10.07;;;;;;;-0.02;65.47;102054.09;5096911;28;20119;-59
2022/03/09 05:52:50;;;;;;;17.48;9.73;;;;;;;0.05;65.49;102059.53;5097091;28;20036;-58
2022/03/09 05:55:15;;;;;;;20.98;10.27;;;;;;;0.09;65.76;102064.91;5096069;28;20036;-58
2022/03/09 05:57:41;;;;;;;18.48;10.32;;;;;;;0.14;64.94;102067.72;5096929;28;20115;-58
2022/03/09 06:00:07;;;;;;;20.45;10.88;;;;;;;0.19;64.18;102068.78;5096825;28;20027;-58
2022/03/09 06:02:33;;;;;;;17.77;10.50;;;;;;;0.23;64.97;102074.16;5096670;28;20032;-59
2022/03/09 06:04:58;;;;;;;23.02;10.30;;;;;;;0.28;64.97;102080.44;5096932;28;20035;-58
2022/03/09 06:07:23;;;;;;;17.58;10.45;;;;;;;0.30;64.81;102086.53;5096640;28;20032;-59
2022/03/09 06:09:49;;;;;;;19.90;11.10;;;;;;;0.26;64.99;102087.19;5078801;28;20051;-58
2022/03/09 06:12:15;;;;;;;19.63;11.00;;;;;;;0.21;65.35;102086.06;5096799;28;20093;-58
2022/03/09 06:14:40;;;;;;;22.10;11.43;;;;;;;0.14;66.58;102086.59;5096662;28;20024;-58
2022/03/09 06:17:05;;;;;;;18.38;10.98;;;;;;;0.12;66.46;102090.78;5096590;28;20038;-59
2022/03/09 06:19:30;;;;;;;21.02;11.32;;;;;;;0.11;66.14;102101.91;5096708;28;20027;-58
2022/03/09 06:21:56;;;;;;;19.58;10.90;;;;;;;-0.01;66.36;102076.47;5078854;28;20381;-58
2022/03/09 06:24:21;;;;;;;18.40;10.82;;;;;;;0.16;65.55;102089.25;5096434;28;20024;-58
2022/03/09 06:26:46;;;;;;;20.52;10.95;;;;;;;0.18;66.38;102101.38;5096055;28;20052;-59
2022/03/09 06:29:12;;;;;;;24.25;11.68;;;;;;;0.17;67.26;102094.47;5096349;28;20028;-59
2022/03/09 06:31:38;;;;;;;19.60;11.45;;;;;;;0.16;66.82;102091.84;5096205;28;20135;-59
2022/03/09 06:34:03;;;;;;;17.58;10.90;;;;;;;0.23;66.37;102097.34;5095888;28;20032;-59
2022/03/09 06:36:29;;;;;;;19.77;10.85;;;;;;;0.27;65.42;102101.81;5096100;28;20032;-59
2022/03/09 06:38:54;;;;;;;19.65;11.18;;;;;;;0.32;65.82;102095.22;5096412;28;20424;-59
2022/03/09 06:41:20;;;;;;;18.00;10.95;;;;;;;0.33;65.80;102101.25;5095985;28;20027;-59
2022/03/09 06:43:45;;;;;;;20.45;11.38;;;;;;;0.34;66.60;102113.31;5096163;28;20106;-59
2022/03/09 06:46:11;;;;;;;20.48;11.07;;;;;;;0.35;66.82;102104.75;5096262;28;20112;-59
2022/03/09 06:48:36;;;;;;;20.95;11.05;;;;;;;0.51;66.65;102121.84;5096023;28;20038;-59
2022/03/09 06:51:02;;;;;;;25.08;12.00;;;;;;;0.68;66.65;102118.38;5095478;28;20093;-59
2022/03/09 06:53:27;;;;;;;20.52;11.27;;;;;;;0.88;65.48;102127.00;5095672;28;20115;-59
2022/03/09 06:55:53;;;;;;;19.30;10.25;;;;;;;1.16;64.04;102117.16;5095779;28;20040;-59
2022/03/09 06:58:18;;;;;;;19.30;11.30;;;;;;;1.50;63.69;102124.69;5095778;28;20107;-58
2022/03/09 07:00:44;;;;;;;20.35;10.82;;;;;;;1.80;61.02;102122.56;5095696;28;20174;-59
2022/03/09 07:03:09;;;;;;;18.38;9.82;;;;;;;2.04;60.69;102123.59;5095513;28;20446;-59
2022/03/09 07:05:35;;;;;;;21.63;9.98;;;;;;;2.30;58.97;102123.75;5077399;28;20043;-59
2022/03/09 07:08:01;;;;;;;21.15;11.00;;;;;;;2.54;59.17;102129.03;5095249;28;20028;-59
2022/03/09 07:10:26;;;;;;;20.20;10.35;;;;;;;2.73;58.12;102135.00;5095411;28;20343;-58
2022/03/09 07:12:52;;;;;;;16.02;9.70;;;;;;;2.82;56.51;102124.13;5093442;28;20028;-59
2022/03/09 07:15:18;;;;;;;17.45;9.90;;;;;;;3.07;55.97;102132.00;5095514;28;20036;-59
2022/03/09 07:17:45;;;;;;;19.42;10.77;;;;;;;3.22;55.70;102129.09;5095014;28;20500;-59
2022/03/09 07:20:11;;;;;;;17.48;10.48;;;;;;;3.48;54.75;102142.97;5094881;28;20043;-59
2022/03/09 07:22:36;;;;;;;16.58;9.98;;;;;;;3.67;52.95;102137.63;5095232;28;20386;-59
2022/03/09 07:25:02;;;;;;;17.33;10.07;;;;;;;3.80;52.90;102136.38;5094953;28;20042;-59
2022/03/09 07:27:27;;;;;;;19.85;10.30;;;;;;;3.91;52.16;102131.56;5094949;28;20059;-59
2022/03/09 07:29:53;;;;;;;19.25;10.48;;;;;;;4.06;51.90;102124.31;5094835;28;20039;-60
2022/03/09 07:32:18;;;;;;;18.00;10.35;;;;;;;4.20;51.19;102120.44;5094512;28;20032;-59
2022/03/09 07:34:43;;;;;;;15.82;9.80;;;;;;;4.36;50.32;102116.66;5094690;28;20028;-59
2022/03/09 07:37:08;;;;;;;16.83;10.48;;;;;;;4.49;51.00;102124.00;5094463;28;20031;-59
2022/03/09 07:39:34;;;;;;;21.33;11.05;;;;;;;4.71;50.02;102125.53;5093121;28;20024;-59
2022/03/09 07:42:00;;;;;;;18.60;10.20;;;;;;;4.93;49.88;102121.88;5093202;28;20096;-59
2022/03/09 07:44:25;;;;;;;17.25;10.63;;;;;;;5.19;48.91;102116.66;5092763;28;20115;-59
2022/03/09 07:46:51;;;;;;;21.45;10.35;;;;;;;5.35;47.71;102122.28;5093006;28;20028;-59
2022/03/09 07:49:18;;;;;;;17.90;10.90;;;;;;;5.48;47.25;102112.28;5093117;28;20115;-59
2022/03/09 07:51:44;;;;;;;19.65;9.80;;;;;;;5.72;46.41;102114.63;5093066;28;20042;-59
2022/03/09 07:54:10;;;;;;;21.80;10.73;;;;;;;5.84;45.43;102109.78;5093129;28;20135;-59
2022/03/09 07:56:35;;;;;;;17.50;10.77;;;;;;;6.31;44.86;102107.53;5093005;28;20110;-60
2022/03/09 07:59:02;;;;;;;18.52;10.35;;;;;;;6.77;43.61;102105.97;5113017;28;20074;-60
2022/03/09 08:01:27;;;;;;;19.63;10.88;;;;;;;7.01;42.05;102114.34;5114618;28;20106;-59
2022/03/09 08:03:54;;;;;;;17.48;10.60;;;;;;;7.43;41.51;102105.66;5115003;28;20108;-59
2022/03/09 08:06:20;;;;;;;15.50;9.90;;;;;;;7.74;40.95;102101.91;5115214;28;20023;-59
2022/03/09 08:08:45;;;;;;;16.05;10.00;;;;;;;8.03;40.35;102117.19;5114666;28;20030;-59
2022/03/09 08:11:10;;;;;;;19.48;9.73;;;;;;;8.24;39.90;102116.69;5114798;28;20036;-59
2022/03/09 08:13:36;;;;;;;18.05;10.35;;;;;;;8.68;39.22;102117.41;5114567;28;20034;-59
2022/03/09 08:16:01;;;;;;;18.38;10.52;;;;;;;9.19;37.83;102118.97;5114688;28;20031;-60
2022/03/09 08:18:26;;;;;;;14.80;9.75;;;;;;;9.46;37.04;102122.78;5117067;28;20352;-59
2022/03/09 08:20:51;;;;;;;19.95;10.75;;;;;;;9.73;36.38;102133.53;5118993;28;20080;-59
2022/03/09 08:23:17;;;;;;;18.85;10.23;;;;;;;10.22;35.14;102127.06;5118647;28;20049;-60
2022/03/09 08:25:42;;;;;;;18.85;11.38;;;;;;;10.54;34.65;102129.97;5118603;28;20028;-59
2022/03/09 08:28:07;;;;;;;16.50;10.25;;;;;;;10.84;34.43;102120.56;5118774;28;20047;-60
2022/03/09 08:30:33;;;;;;;15.35;10.48;;;;;;;11.01;33.84;102124.16;5118571;28;20031;-60
2022/03/09 08:32:58;;;;;;;16.85;10.00;;;;;;;11.04;32.74;102117.19;5118129;28;20067;-59
2022/03/09 08:35:23;;;;;;;18.10;10.52;;;;;;;10.37;33.81;102127.22;5118647;28;20418;-58
2022/03/09 08:37:49;;;;;;;18.30;10.82;;;;;;;10.15;35.10;102130.50;5118332;28;20118;-59
2022/03/09 08:40:14;;;;;;;18.08;10.63;;;;;;;10.13;34.62;102133.09;5118656;28;20097;-59
2022/03/09 08:42:39;;;;;;;18.02;10.35;;;;;;;9.89;34.93;102135.44;5118322;28;20112;-59
2022/03/09 08:45:05;;;;;;;18.77;11.10;;;;;;;9.52;35.45;102141.16;5100153;28;20040;-59
2022/03/09 08:47:30;;;;;;;18.42;10.32;;;;;;;9.13;35.77;102136.31;5118322;28;20085;-59
2022/03/09 08:49:57;;;;;;;19.42;10.63;;;;;;;8.83;36.69;102147.22;5118214;28;20096;-59
2022/03/09 08:52:23;;;;;;;19.83;10.68;;;;;;;8.73;37.14;102143.56;5118359;28;20063;-59
2022/03/09 08:54:48;;;;;;;16.73;10.18;;;;;;;8.53;37.66;102143.28;5118161;28;20038;-59
2022/03/09 08:57:14;;;;;;;23.20;11.55;;;;;;;8.40;37.75;102150.88;5118274;28;20319;-59
2022/03/09 08:59:39;;;;;;;18.85;11.18;;;;;;;8.30;37.93;102139.41;5118280;28;20386;-59
2022/03/09 09:02:05;;;;;;;18.92;10.98;;;;;;;8.29;38.27;102148.06;5118018;28;20036;-59
2022/03/09 09:04:30;;;;;;;21.33;11.23;;;;;;;8.47;38.27;102145.81;5118598;28;20052;-59
2022/03/09 09:06:55;;;;;;;18.42;11.70;;;;;;;8.50;38.41;102145.81;5118283;28;20046;-59
2022/03/09 09:09:20;;;;;;;17.58;11.10;;;;;;;8.53;38.20;102145.00;5117779;28;20032;-59
2022/03/09 09:11:47;;;;;;;19.42;11.60;;;;;;;8.56;38.03;102152.88;5117922;28;20034;-59
2022/03/09 09:14:13;;;;;;;20.25;11.25;;;;;;;8.65;38.29;102146.09;5118053;28;20028;-59
2022/03/09 09:16:41;;;;;;;19.70;11.35;;;;;;;8.73;38.31;102143.56;5117222;28;20023;-59
2022/03/09 09:19:06;;;;;;;17.13;11.30;;;;;;;8.85;38.19;102135.91;5099974;28;20038;-59
2022/03/09 09:21:32;;;;;;;21.33;11.95;;;;;;;8.91;38.04;102129.91;5117726;28;20035;-59
2022/03/09 09:23:57;;;;;;;18.63;11.48;;;;;;;8.76;37.37;102137.53;5117606;28;20058;-59
2022/03/09 09:26:22;;;;;;;19.70;11.60;;;;;;;8.81;37.82;102130.66;5117836;28;20039;-59
2022/03/09 09:28:48;;;;;;;20.35;11.85;;;;;;;8.76;37.56;102137.53;5117151;28;20089;-59
2022/03/09 09:31:13;;;;;;;17.83;11.88;;;;;;;8.80;37.74;102137.59;5117088;28;20023;-60
2022/03/09 09:33:38;;;;;;;18.65;10.98;;;;;;;8.96;37.60;102125.66;5117236;28;20027;-59
2022/03/09 09:36:04;;;;;;;19.92;11.23;;;;;;;9.12;37.36;102139.78;5117491;28;20024;-59
2022/03/09 09:38:30;;;;;;;23.52;11.93;;;;;;;9.17;37.59;102131.16;5114135;28;20088;-59
2022/03/09 09:40:56;;;;;;;22.30;11.57;;;;;;;9.30;37.46;102129.56;5117496;28;20027;-59
2022/03/09 09:43:23;;;;;;;19.80;11.82;;;;;;;9.46;37.22;102131.50;5117394;28;20030;-59
2022/03/09 09:45:48;;;;;;;19.08;12.25;;;;;;;9.69;37.30;102127.44;5106660;28;20442;-59
2022/03/09 09:48:14;;;;;;;19.88;12.57;;;;;;;9.63;36.80;102131.69;5083514;28;20033;-59
2022/03/09 09:50:42;;;;;;;20.70;12.45;;;;;;;9.74;37.48;102136.19;5089163;28;20023;-58
2022/03/09 09:53:10;;;;;;;22.23;13.20;;;;;;;9.77;36.90;102136.22;5094654;28;20112;-58
2022/03/09 09:55:36;;;;;;;21.33;12.43;;;;;;;9.72;36.71;102134.41;5094121;28;20032;-59
2022/03/09 09:58:02;;;;;;;20.40;13.13;;;;;;;10.10;37.16;102140.91;5092528;28;20054;-58
2022/03/09 10:00:28;;;;;;;22.98;12.80;;;;;;;10.44;37.80;102125.50;5093057;28;20055;-59
2022/03/09 10:02:54;;;;;;;22.77;13.80;;;;;;;10.47;36.33;102130.78;5094479;28;20094;-59
2022/03/09 10:05:19;;;;;;;23.02;13.35;;;;;;;10.55;36.58;102133.47;5094727;28;20029;-59
2022/03/09 10:08:03;;;;;;;28.42;14.60;;;;;;;10.68;37.26;102132.69;5094292;28;20074;-59
2022/03/09 10:10:30;;;;;;;27.05;14.02;;;;;;;10.74;36.14;102119.59;5094578;28;20032;-59
2022/03/09 10:13:19;;;;;;;21.80;13.55;;;;;;;10.77;36.63;102128.38;5094310;28;20130;-59
2022/03/09 10:15:47;;;;;;;22.38;13.80;;;;;;;10.89;36.38;102131.94;5094564;28;20060;-59
2022/03/09 10:18:14;;;;;;;21.50;13.38;;;;;;;10.88;36.04;102120.59;5094513;28;20439;-59
2022/03/09 10:20:39;;;;;;;24.77;13.85;;;;;;;10.99;35.72;102123.25;5094586;28;20077;-60
2022/03/09 10:23:05;;;;;;;23.15;13.65;;;;;;;11.14;36.28;102113.72;5094590;28;20024;-60
2022/03/09 10:25:30;;;;;;;22.42;14.25;;;;;;;11.26;36.30;102118.16;5093923;28;20462;-61
2022/03/09 10:27:56;;;;;;;23.25;13.70;;;;;;;11.48;36.52;102116.47;5094361;28;20139;-61
2022/03/09 10:30:33;;;;;;;25.05;13.65;;;;;;;11.60;36.34;102110.44;5094026;28;20094;-61
2022/03/09 10:33:10;;;;;;;26.42;14.52;;;;;;;11.47;36.33;102109.50;5094330;28;20204;-61
2022/03/09 10:35:43;;;;;;;22.40;13.55;;;;;;;11.33;35.90;102106.81;5094380;28;20077;-61
2022/03/09 10:38:22;;;;;;;24.25;14.00;;;;;;;11.24;36.23;102104.19;5094101;28;20111;-61
2022/03/09 10:40:51;;;;;;;24.02;14.57;;;;;;;11.22;36.48;102097.19;5094058;28;20575;-61
2022/03/09 10:43:18;;;;;;;24.30;14.27;;;;;;;11.22;36.43;102121.66;5094094;28;20027;-60
2022/03/09 10:46:09;;;;;;;23.90;14.75;;;;;;;11.21;36.69;102119.00;5094015;28;20024;-61
2022/03/09 10:49:01;;;;;;;23.73;14.27;;;;;;;11.38;37.20;102109.47;5077197;28;20028;-61
2022/03/09 10:51:37;;;;;;;24.95;14.30;;;;;;;11.50;36.31;102118.25;5090832;28;20036;-60
2022/03/09 10:54:11;;;;;;;24.15;14.02;;;;;;;11.62;36.15;102114.78;5095418;28;20024;-61
2022/03/09 10:56:37;;;;;;;29.33;15.40;;;;;;;11.61;36.19;102112.16;5095189;28;20028;-61
2022/03/09 10:59:12;;;;;;;26.38;14.75;;;;;;;11.59;36.37;102111.28;5095711;28;20032;-61
2022/03/09 11:01:37;;;;;;;25.95;15.40;;;;;;;11.62;36.04;102108.66;5095361;28;20039;-61
2022/03/09 11:04:29;;;;;;;27.05;15.20;;;;;;;11.90;36.29;102109.63;5095233;28;20032;-61
2022/03/09 11:06:56;;;;;;;25.15;15.80;;;;;;;12.09;35.65;102103.53;5090587;28;20082;-60
2022/03/09 11:09:22;;;;;;;26.35;15.43;;;;;;;12.11;35.60;102107.91;5094435;28;20455;-61
2022/03/09 11:11:49;;;;;;;28.75;15.85;;;;;;;12.34;36.18;102109.66;5095058;28;20028;-61
2022/03/09 11:14:17;;;;;;;31.15;15.45;;;;;;;12.35;34.96;102093.91;5095466;28;20103;-61